Jessore, Bangladesh
Current Conditions -  °F | °C
As of 3:50 PM on Saturday 20 Dec 2014 (Local Time) from VECC Reporting Station
Haze Haze  
Wind Chill: 77°   Ceiling: Unl
Heat Index: 79°   Visibility: 2mi
Dew Point: 55°   Wind: 7mph
Humidity: 47%   Direction: 350°N
Pressure: 29.91"   Gusts: NA
Location:  23.15°N, 89.21°E
Report Text: VECC 200950Z 35006KT 3200 HZ NSC 25/13 Q1013 NOSIG
Loading
Personal Weather Stations






























Interactive Weather Map New forecast layout! Learn more

10-Day Weather Forecast

Advertisements
Track Severe Weather on mobile